AREA preflight bulletin
Updated "live" 17 Nov 2019, 11:56

back to the map




METAR og TAF


ILULISSAT
  AKTUEL BGJN 171150Z 04013KT 9999 FEW180 M08/M19 Q0997=
  TAF 9 timer BGJN 171120Z 1712/1720 06012KT 9999 FEW050 SCT120 TEMPO 1715/1720 12015G25KT=

AASIAAT
  AKTUEL BGAA 171150Z AUTO 03029KT 9999NDV -FZDZ NCD M04/M09 Q0996=

UUMMANNAQ/QAARSUT
  AKTUEL BGUQ 171150Z 12013KT 9999 FEW180 M08/M15 Q1003=
  TAF 9 timer BGUQ 171136Z 1711/1718 13015KT 9999 FEW050 SCT120=

NUUK
  AKTUEL BGGH 171150Z 05012KT 9999 BKN200 M04/M10 Q0986=
  TAF 9 timer BGGH 171120Z 1712/1720 04012KT 9999 FEW050 BKN150 TEMPO 1715/1720 VRB08KT BKN050=

KANGERLUSSUAQ
  AKTUEL BGSF 171150Z AUTO 07007KT 030V090 9999NDV BKN150/// M16/M19 Q0994=
  TAF 24 timer BGSF 171056Z 1712/1723 VRB06KT 9999 FEW200 TEMPO 1712/1723 09012KT=

QEQERTARSUAQ
  AKTUEL

QASIGIANNGUIT
  AKTUEL BGCH 171150Z AUTO 08010KT //// ///////// M10/M17 Q0995=


SIGMETS:

SONDRESTROM FIR
  SIGMET BGGL SIGMET 3 VALID 171115/171415 BGSF- BGGL NUUK FIR SEV TURB OBS AT 1115Z WI N6200 W04139 - N5936 W04304 - N5948 W04508 - N6044 W04836 - N6144 W04936 - N6248 W04232 - N6200 W04139 SFC/FL140 NC FCST AT 1415Z WI N6118 W04158 - N5938 W04306 - N5943 W04449 - N6020 W04611 - N6118 W04515 - N6118 W04158=

SNOWTAM:

ICAO
BGGH (NUUK)

valid from:
1911171055

Notam_id:
0084

SNOWTAM 0084 A) BGGH B) 11171055 C) 05 F) 7/7/7 G) 1/1/1 H) 5/5/5 N) 7/GOOD R) 78/POOR T) RWY CONTAMINATION 10 PERCENT 1MM ICE - MEASURED FRICTION COEFFICIENTS 80/80/77 TAP



NOTAM/SNOWTAM for operationel use has to be confirmed with the
nearest AIS Briefing Office prior to a flight.

ICAO
BGAA (AASIAAT)

FIR
BGGL

Notam_id:
BGA0269/17

valid from:
1706081136

D) DAILY 1100-1115 2300-2315


E) ASCENT OR WEATHER BALLOON TAKES PLACE TWICE A DAY 1100-1115 AND 2300-2315. POSN 684201N0525105W LOCATED WEST OF THE AIRPORT AT A DISTANCE OF APPROX 3 KM. THE BALLOON CAN RISE TO A HEIGHT OF UP TO 35 KM. REF AIP GREENLAND AD 2 - BGAA - 4. F) SFC G) FL999

valid to:
PERM




ICAO
BGAA (AASIAAT)

FIR
BGGL

Notam_id:
BGB0625/19

valid from:
1911070000

E) TRIGGER NOTAM - PERM AIP AIRAC AMDT 07/19 WEF 07 NOV 2019. NEW TEXT CONCERNING WEATHER BALLOON ADDED.

valid to:
1911202359




ICAO
BGUQ (UUMMANNAQ/QAARSUT)

FIR
BGGL

Notam_id:
BGB0582/19

valid from:
1908301101

E) THR ID LIGHTS RWY 33 U/S.

valid to:
1911301800EST


Replacing:
BGB0530/19

ICAO
BGGL (SONDRESTROM FIR)

FIR
BGGL

Notam_id:
BGA0555/19

valid from:
1911211230

E) NDB OZN/PRINS CHRISTIAN SUND 372 KHZ U/S DUE MAINTENANCE

valid to:
1911211900




ICAO
BGGL (SONDRESTROM FIR)

FIR
BGGL

Notam_id:
BGA0483/19

valid from:
1909271038

E) NUUK INFORMATION FREQ 5526 KHZ PSN 6334N03707W KULUSUK U/S.

valid to:
2004011800




ICAO
BGGL (SONDRESTROM FIR)

FIR
BGGL

Notam_id:
BGA0530/19

valid from:
1911010555

E) CHECKLIST YEAR=2017 0269 YEAR=2018 0199 YEAR=2019 0323 0416 0470 0471 0483 0519 0527 0529 LATEST PUBLICATIONS AIP AIRAC AMDT IFR 008/2019 EFFECTIVE DATE 05 DEC 19 AIP AMDT IFR 003/2018 EFFECTIVE DATE 15 MAR 18 AIP SUP IFR 001/2019 EFFECTIVE DATE 06 JUN 19 AIC IFR A001/2019 EFFECTIVE DATE 17 JAN 19 AIC CHECKLIST AIP IFR A001/2016 A002/2016 A001/2017 A002/2017 A002/2018 A003/2018 A004/2018 A001/2019 AIP VFR NIL AIP MIL NIL SUP CHECKLIST AIP IFR NIL AIP VFR NIL AIP MIL NIL

valid to:
1912010555EST


Replacing:
BGA0488/19

ICAO
BGGL (SONDRESTROM FIR)

FIR
BGGL

Notam_id:
BGB0698/19

valid from:
1911010555

E) CHECKLIST YEAR=2017 0740 YEAR=2018 NIL YEAR=2019 0145 0506 0508 0582 0605 0606 0625 0626 0627 0628 0655 0663 0677 0694 0695 0696 0697 LATEST PUBLICATIONS AIP AIRAC AMDT IFR 008/2019 EFFECTIVE DATE 05 DEC 19 AIP AMDT IFR 003/2018 EFFECTIVE DATE 15 MAR 18 AIP SUP IFR 001/2019 EFFECTIVE DATE 06 JUN 19 AIC IFR A001/2019 EFFECTIVE DATE 17 JAN 19 AIC CHECKLIST AIP IFR A001/2016 A002/2016 A001/2017 A002/2017 A002/2018 A003/2018 A004/2018 A001/2019 AIP VFR NIL AIP MIL NIL SUP CHECKLIST AIP IFR NIL AIP VFR NIL AIP MIL NIL

valid to:
1912010555EST


Replacing:
BGB0643/19

ICAO
BGGL (SONDRESTROM FIR)

FIR
BGGL

Notam_id:
BGC0117/19

valid from:
1911010556

E) CHECKLIST YEAR=2019 0067 0068 0070 0073 0087 0096 0105 0106 0114 0115 0116 LATEST PUBLICATIONS AIP AIRAC AMDT IFR 008/2019 EFFECTIVE DATE 05 DEC 19 AIP AMDT IFR 003/2018 EFFECTIVE DATE 15 MAR 18 AIP SUP IFR 001/2019 EFFECTIVE DATE 06 JUN 19 AIC IFR A001/2019 EFFECTIVE DATE 17 JAN 19 AIC CHECKLIST AIP IFR A001/2016 A002/2016 A001/2017 A002/2017 A002/2018 A003/2018 A004/2018 A001/2019 AIP VFR NIL AIP MIL NIL SUP CHECKLIST AIP IFR NIL AIP VFR NIL AIP MIL NIL

valid to:
1912010556EST


Replacing:
BGC0100/19

ICAO
BGGL (SONDRESTROM FIR)

FIR
BGGL

Notam_id:
BGA0557/19

valid from:
1911250700

E) TEMPORARY RESTRICTED AREA C-REX-2 4TH STAGE, IN BGGL AIRSPACE, ACTIVATED. LATERAL LIMITS: 784951N0000000E - 730000N0000000E - ALONG THE LATITUDE 730000N TO 730000N0064607W - CLOCKWISE ALONG AN ARC OF A CIRCLE, RADIUS 200 NM CENTRED AT 753125N0011215E TO 784951N0000000E. F) SFC G) UNL

valid to:
1912121230




ICAO
BGGL (SONDRESTROM FIR)

FIR
BGGL

Notam_id:
BGA0470/19

valid from:
1911070000

E) TRIGGER NOTAM - PERM AIP AIRAC AMDT 07/19 WEF 07 NOV 2019. DME PA (CH26Y) WITHDRAWN. SUNRISE/SUNSET TABLES UPDATED. DIRECTION CHANGED FROM EVEN TO ODD AT AREA NAVIGATION (RNAV) ROUTE UT596.

valid to:
1911202359




ICAO
BGGL (SONDRESTROM FIR)

FIR
BGGL

Notam_id:
BGA0519/19

valid from:
1912050000

E) TRIGGER NOTAM - PERM AIP AIRAC AMDT 08/19 WEF 05 DEC 2019. LIST OF AIRAC EFFECTIVE DATES UPDATED.

valid to:
1912182359




ICAO
BGGL (SONDRESTROM FIR)

FIR
BGGL

Notam_id:
BGA0199/18

valid from:
1805310935

E) GREENLAND AND ADJACENT WATERS ARE CONSIDERED HOSTILE AREAS BY THE CIVIL AVIATION AUTHORITY (TBST). THREE MAJOR REASONS CONTRIBUTE TO DEFINING THE AREA AS HOSTILE: A SAFE FORCED LANDING CANNOT BE ACCOMPLISHED BECAUSE THE SURFACE IS INADEQUATE. THE HELICOPTER OCCUPANTS CANNOT BE ADEQUATELY PROTECTED FROM THE ELEMENTS. SEARCH AND RESCUE RESPONSE/CAPABILITY ARE NOT PROVIDED CONSISTENT WITH ANTICIPATED EXPOSURE.

valid to:
PERM




ICAO
BGGL (SONDRESTROM FIR)

FIR
BGGL

Notam_id:
BGA0556/19

valid from:
1911250700

E) TRIGGER NOTAM - AIP SUP 02/19 - WEF 25 NOV 2019. TEMPORARY DANGER AREAS C-REX-2 4TH STAGE AND CHI - PART BG. F) SFC G) UNL

valid to:
1912090659




ICAO
BGGL (SONDRESTROM FIR)

FIR
BGGL

Notam_id:
BGA0558/19

valid from:
1911250700

E) TEMPORARY RESTRICTED AREA CHI - PART BG, IN BGGL AIRSPACE, ACTIVATED. LATERAL LIMITS: 774746N0000000E - 751237N0000000E - CLOCKWISE ALONG AN ARC OF A CIRCLE, RADIUS 80 NM CENTRED AT 763000N0011700E TO 774746N0000000E. F) SFC G) UNL

valid to:
1912121230




ICAO
BGGH (NUUK)

FIR
BGGL

Notam_id:
BGB0605/19

valid from:
1909101306

E) BGGH AFIS FREQ 119,100MHZ LIMITED RADIOCOVERAGE WITHIN TIZ TO THE NE, E, SE AND S.

valid to:
1911301300EST




ICAO
BGGH (NUUK)

FIR
BGGL

Notam_id:
BGB0735/19

valid from:
1911151528

E) LIGHTING ON RWY DESIGNATION SIGNS U/S.

valid to:
1911181500EST





Copyright Naviair   2003-2016